Time;durP1;ratioP1;P1;durP2;ratioP2;P2;SDS_P1;SDS_P2;PMS_P1;PMS_P2;Temp;Humidity;BMP_temperature;BMP_pressure;BME280_temperature;BME280_humidity;BME280_pressure;Samples;Min_cycle;Max_cycle;Signal;HPM_P1;HPM_P2
2021/09/01 05:02:16;;;;;;;4.50;4.03;;;;;;;18.37;68.69;94924.69;5126852;23;20113;-73
2021/09/01 05:04:41;;;;;;;3.13;2.92;;;;;;;19.45;65.50;94921.06;4937720;28;20480;-73
2021/09/01 05:07:07;;;;;;;4.93;3.35;;;;;;;20.90;60.23;94921.06;4954844;28;20026;-73
2021/09/01 05:09:32;;;;;;;2.97;2.78;;;;;;;22.41;56.63;94925.38;4954481;28;20456;-73
2021/09/01 05:11:58;;;;;;;2.67;2.47;;;;;;;23.44;53.10;94921.78;4938167;28;20027;-73
2021/09/01 05:14:23;;;;;;;3.70;3.30;;;;;;;23.01;54.50;94925.31;4972069;28;20484;-73
2021/09/01 05:16:49;;;;;;;5.35;2.92;;;;;;;22.27;56.80;94922.28;4953677;28;20447;-73
2021/09/01 05:19:14;;;;;;;7.03;3.83;;;;;;;22.27;56.32;94927.56;4972663;28;20500;-74
2021/09/01 05:21:42;;;;;;;4.53;3.08;;;;;;;22.85;56.41;94918.25;4937521;28;20037;-74
2021/09/01 05:24:10;;;;;;;3.90;2.42;;;;;;;24.28;51.29;94914.75;4955024;28;20023;-73
2021/09/01 05:26:35;;;;;;;4.05;3.03;;;;;;;23.81;52.55;94919.19;4937598;28;20465;-73
2021/09/01 05:29:02;;;;;;;6.60;3.28;;;;;;;25.40;47.17;94910.66;4955203;28;20081;-74
2021/09/01 05:31:31;;;;;;;5.03;3.30;;;;;;;25.44;46.72;94917.03;4964972;28;20038;-74
2021/09/01 05:33:56;;;;;;;3.38;2.50;;;;;;;26.58;44.37;94911.91;4952236;28;20034;-74
2021/09/01 05:36:22;;;;;;;3.83;3.03;;;;;;;27.51;41.47;94913.88;4937865;28;20039;-74
2021/09/01 05:38:47;;;;;;;2.75;2.65;;;;;;;28.10;41.39;94927.00;4937311;28;20023;-74
2021/09/01 05:41:13;;;;;;;3.05;2.45;;;;;;;29.07;39.58;94922.22;4938704;28;20511;-74
2021/09/01 05:43:38;;;;;;;4.15;2.55;;;;;;;29.07;39.19;94924.88;4937420;28;20034;-75
2021/09/01 05:46:04;;;;;;;2.40;2.20;;;;;;;29.23;37.58;94926.25;4922155;28;20026;-73
2021/09/01 05:48:29;;;;;;;3.35;2.53;;;;;;;29.03;38.82;94929.19;4971500;28;20093;-74
2021/09/01 05:50:55;;;;;;;2.72;2.53;;;;;;;29.72;37.79;94925.84;4953575;28;20046;-75
2021/09/01 05:53:22;;;;;;;3.42;2.67;;;;;;;29.84;37.73;94925.41;4954490;28;20050;-74
2021/09/01 05:55:49;;;;;;;2.95;2.28;;;;;;;30.00;37.25;94924.09;4919876;28;20027;-73
2021/09/01 05:58:18;;;;;;;3.00;2.80;;;;;;;30.02;37.91;94928.03;4938245;28;20031;-74
2021/09/01 06:00:43;;;;;;;5.63;2.80;;;;;;;26.49;44.26;94932.13;4951936;28;20416;-74
2021/09/01 06:03:31;;;;;;;3.58;2.72;;;;;;;25.46;47.77;94933.50;4938172;28;20286;-75
2021/09/01 06:05:57;;;;;;;2.60;2.40;;;;;;;25.47;48.70;94927.91;4953682;28;20030;-75
2021/09/01 06:08:24;;;;;;;2.80;2.60;;;;;;;25.00;49.12;94930.75;4936969;28;20469;-73
2021/09/01 06:10:50;;;;;;;3.97;2.10;;;;;;;25.06;49.04;94928.91;4954056;28;20035;-74
2021/09/01 06:13:17;;;;;;;4.47;3.00;;;;;;;24.87;49.67;94928.56;4920545;28;20034;-73
2021/09/01 06:15:43;;;;;;;3.17;2.83;;;;;;;28.38;42.74;94933.41;4938211;28;20107;-76
2021/09/01 06:18:09;;;;;;;3.83;2.53;;;;;;;28.70;40.08;94921.09;4936902;28;20109;-73
2021/09/01 06:20:35;;;;;;;2.97;2.63;;;;;;;24.65;46.88;94923.44;4937384;28;20027;-78
2021/09/01 06:23:01;;;;;;;2.63;2.42;;;;;;;25.13;48.10;94932.09;4937322;28;20113;-74
2021/09/01 06:25:27;;;;;;;3.58;2.60;;;;;;;25.00;48.05;94932.59;4952790;28;20033;-74
2021/09/01 06:27:52;;;;;;;4.47;2.75;;;;;;;25.14;47.57;94931.06;4953779;28;20070;-75
2021/09/01 06:30:18;;;;;;;2.40;2.20;;;;;;;24.90;49.12;94937.84;4935730;28;20113;-75
2021/09/01 06:32:43;;;;;;;3.67;1.92;;;;;;;25.39;47.84;94931.09;4937738;28;20471;-75
2021/09/01 06:35:09;;;;;;;2.75;2.30;;;;;;;25.51;47.35;94931.66;4936130;28;20200;-74
2021/09/01 06:37:39;;;;;;;2.22;2.13;;;;;;;26.63;44.53;94937.66;4937316;28;20057;-75
2021/09/01 06:40:06;;;;;;;4.07;2.13;;;;;;;30.54;37.56;94939.47;4953137;28;20026;-73
2021/09/01 06:42:31;;;;;;;3.63;2.00;;;;;;;33.18;32.69;94923.06;4952838;28;20031;-74
2021/09/01 06:44:57;;;;;;;3.38;2.67;;;;;;;32.30;33.87;94940.22;4953706;28;20469;-74
2021/09/01 06:47:22;;;;;;;2.78;2.35;;;;;;;33.94;31.68;94928.03;4936271;28;20031;-74
2021/09/01 06:49:47;;;;;;;7.43;3.05;;;;;;;34.16;31.37;94934.03;4952958;28;20034;-75
2021/09/01 06:52:13;;;;;;;2.75;2.55;;;;;;;34.50;30.55;94941.22;4951691;28;20379;-73
2021/09/01 06:54:38;;;;;;;2.65;2.42;;;;;;;34.12;31.16;94940.34;4936822;28;20032;-74
2021/09/01 06:57:04;;;;;;;4.60;2.88;;;;;;;33.75;31.28;94941.78;4935835;28;20130;-74
2021/09/01 06:59:29;;;;;;;2.70;2.40;;;;;;;28.60;39.72;94934.50;4970174;28;20155;-73
2021/09/01 07:01:55;;;;;;;3.47;2.33;;;;;;;27.17;43.62;94949.16;4920368;29;20517;-73
2021/09/01 07:04:20;;;;;;;3.58;3.08;;;;;;;27.02;43.87;94951.91;4931081;29;20028;-74
2021/09/01 07:06:46;;;;;;;3.78;2.80;;;;;;;26.67;44.71;94954.69;4929951;29;20046;-74
2021/09/01 07:09:12;;;;;;;3.95;3.00;;;;;;;27.09;44.50;94944.44;4897164;29;20478;-73
2021/09/01 07:11:38;;;;;;;5.07;2.55;;;;;;;26.30;46.38;94952.38;4914523;29;20027;-75
2021/09/01 07:14:03;;;;;;;2.67;2.47;;;;;;;26.52;45.08;94950.19;4928949;29;20059;-73
2021/09/01 07:16:28;;;;;;;4.43;2.35;;;;;;;26.52;46.44;94957.38;4898924;29;20413;-76
2021/09/01 07:18:54;;;;;;;2.78;2.50;;;;;;;27.13;44.44;94958.00;4929863;29;20095;-73
2021/09/01 07:21:19;;;;;;;2.90;2.70;;;;;;;26.18;46.41;94950.00;4913752;29;20429;-74
2021/09/01 07:23:45;;;;;;;3.17;2.50;;;;;;;26.18;46.71;94950.00;4929971;29;20040;-75
2021/09/01 07:26:12;;;;;;;2.75;2.55;;;;;;;26.39;46.29;94944.66;4928824;29;20030;-74
2021/09/01 07:28:38;;;;;;;3.88;2.63;;;;;;;26.32;45.75;94938.81;4930462;29;20078;-73
2021/09/01 07:31:04;;;;;;;4.15;2.35;;;;;;;26.42;45.40;94942.25;4912719;29;20035;-73
2021/09/01 07:33:30;;;;;;;3.85;2.83;;;;;;;26.28;46.88;94932.44;4914741;29;20043;-74
2021/09/01 07:35:55;;;;;;;5.63;2.50;;;;;;;25.86;48.12;94940.69;4896469;29;20600;-75
2021/09/01 07:38:21;;;;;;;3.42;2.35;;;;;;;25.79;48.92;94934.84;4930276;29;20532;-76
2021/09/01 07:40:47;;;;;;;5.40;2.65;;;;;;;25.90;48.03;94939.91;4929322;29;20038;-74
2021/09/01 07:43:13;;;;;;;5.15;2.42;;;;;;;25.56;49.14;94931.66;4930284;29;20028;-73
2021/09/01 07:45:38;;;;;;;2.67;2.47;;;;;;;26.06;48.38;94930.06;4914240;29;20060;-74
2021/09/01 07:48:04;;;;;;;4.45;2.40;;;;;;;25.95;48.07;94931.13;4912629;29;20028;-74
2021/09/01 07:50:30;;;;;;;5.50;2.50;;;;;;;25.56;48.71;94936.16;4898237;29;20035;-75
2021/09/01 07:52:56;;;;;;;4.63;2.38;;;;;;;25.53;49.58;94937.50;4928368;29;20114;-73
2021/09/01 07:55:22;;;;;;;2.35;2.15;;;;;;;26.00;47.40;94921.31;4929580;29;20080;-74
2021/09/01 07:57:47;;;;;;;2.63;2.35;;;;;;;26.03;48.24;94935.91;4913206;29;20397;-72
2021/09/01 08:00:13;;;;;;;2.85;1.70;;;;;;;25.63;46.48;94936.72;4913504;29;20513;-75
2021/09/01 08:02:38;;;;;;;3.85;1.80;;;;;;;25.27;46.85;94927.88;4968410;28;20522;-74
2021/09/01 08:05:05;;;;;;;2.67;1.42;;;;;;;25.88;45.93;94928.75;4950268;28;20042;-74
2021/09/01 08:07:30;;;;;;;2.97;1.38;;;;;;;26.29;45.73;94924.22;4952361;28;20979;-75
2021/09/01 08:09:56;;;;;;;1.70;1.60;;;;;;;26.05;46.76;94933.78;4950214;28;20110;-74
2021/09/01 08:12:21;;;;;;;1.67;1.58;;;;;;;26.35;46.27;94939.09;4969725;28;20034;-75
2021/09/01 08:14:47;;;;;;;4.00;1.35;;;;;;;26.32;45.28;94928.19;4950499;28;20408;-75
2021/09/01 08:17:13;;;;;;;1.90;1.70;;;;;;;24.86;49.50;94926.16;4951838;28;20039;-73
2021/09/01 08:19:42;;;;;;;4.75;1.40;;;;;;;24.77;48.54;94927.69;4951382;28;20034;-74
2021/09/01 08:22:08;;;;;;;2.35;1.30;;;;;;;25.15;47.36;94920.16;4953420;28;20066;-77
2021/09/01 08:24:34;;;;;;;1.20;1.10;;;;;;;25.96;45.08;94930.88;4940331;28;20035;-74
2021/09/01 08:26:59;;;;;;;1.42;1.33;;;;;;;25.02;47.13;94928.63;4969908;28;20027;-71
2021/09/01 08:29:25;;;;;;;1.90;1.40;;;;;;;25.73;45.86;94930.59;4955244;28;20034;-73
2021/09/01 08:31:50;;;;;;;4.63;2.40;;;;;;;25.91;46.48;94928.22;4953485;28;20086;-73
2021/09/01 08:34:16;;;;;;;2.90;1.77;;;;;;;25.65;46.46;94930.06;4972134;28;20033;-73
2021/09/01 08:36:41;;;;;;;1.65;1.20;;;;;;;26.09;46.09;94930.34;4954398;28;20473;-74
2021/09/01 08:39:06;;;;;;;4.55;1.25;;;;;;;25.98;47.09;94933.25;4971902;28;20030;-74
2021/09/01 08:41:32;;;;;;;4.70;1.63;;;;;;;25.67;46.96;94927.97;4972908;28;20027;-73
2021/09/01 08:43:59;;;;;;;6.00;5.40;;;;;;;25.91;44.53;94924.78;4952806;28;20027;-72
2021/09/01 08:46:24;;;;;;;4.97;2.30;;;;;;;25.65;46.37;94922.09;4930779;28;20034;-72
2021/09/01 08:48:49;;;;;;;2.63;1.60;;;;;;;25.76;45.46;94908.84;4944820;28;20062;-74
2021/09/01 08:51:15;;;;;;;4.53;3.03;;;;;;;25.69;46.01;94909.09;4930700;28;20667;-72
2021/09/01 08:53:41;;;;;;;2.13;1.90;;;;;;;25.68;46.07;94902.22;4944907;28;20110;-74
2021/09/01 08:56:06;;;;;;;2.83;1.48;;;;;;;25.79;46.37;94905.66;4919183;28;20057;-73
2021/09/01 08:58:32;;;;;;;2.25;1.30;;;;;;;26.09;45.74;94897.66;4950084;28;20038;-76
2021/09/01 09:00:57;;;;;;;2.17;1.10;;;;;;;26.27;44.31;94893.66;4942759;28;20467;-74
2021/09/01 09:03:22;;;;;;;3.63;1.25;;;;;;;25.99;44.10;94890.50;4941510;28;20039;-74
2021/09/01 09:05:48;;;;;;;1.83;0.88;;;;;;;26.31;45.29;94895.53;4946005;28;20031;-74
2021/09/01 09:08:14;;;;;;;2.05;1.10;;;;;;;26.44;43.95;94891.50;4945209;28;20103;-74
2021/09/01 09:10:41;;;;;;;1.08;0.77;;;;;;;26.19;44.37;94889.72;4927019;28;20408;-74
2021/09/01 09:13:34;;;;;;;2.47;2.28;;;;;;;26.19;43.49;94887.84;4937601;28;20375;-73
2021/09/01 09:16:09;;;;;;;3.00;1.63;;;;;;;25.95;44.41;94891.31;4957307;28;20054;-75
2021/09/01 09:18:35;;;;;;;20.58;18.50;;;;;;;26.17;45.40;94883.84;4952472;28;20563;-74
2021/09/01 09:21:21;;;;;;;3.20;2.83;;;;;;;26.24;43.00;94881.72;4937872;28;20019;-72
2021/09/01 09:23:48;;;;;;;2.55;1.10;;;;;;;26.25;42.92;94890.50;4936789;28;20025;-74
2021/09/01 09:26:30;;;;;;;1.92;1.15;;;;;;;26.05;45.22;94873.50;4953954;28;20479;-72
2021/09/01 09:29:12;;;;;;;1.20;1.10;;;;;;;26.14;44.04;94873.75;4938470;28;20485;-73
2021/09/01 09:31:38;;;;;;;2.33;1.30;;;;;;;26.17;45.42;94875.88;4968731;28;20054;-73
2021/09/01 09:34:08;;;;;;;0.82;0.82;;;;;;;26.45;42.70;94874.50;4951628;28;20114;-74
2021/09/01 09:36:33;;;;;;;0.80;0.80;;;;;;;26.16;43.98;94874.31;4951058;28;20030;-74
2021/09/01 09:38:59;;;;;;;1.25;1.15;;;;;;;26.20;45.05;94857.56;4967276;28;20047;-75
2021/09/01 09:41:27;;;;;;;1.30;1.00;;;;;;;26.01;43.79;94874.28;4965913;28;20039;-77
2021/09/01 09:44:00;;;;;;;0.90;0.90;;;;;;;26.40;43.26;94858.56;4936769;28;20034;-72
2021/09/01 09:46:26;;;;;;;2.90;0.98;;;;;;;26.51;42.53;94866.22;4955146;28;20310;-74
2021/09/01 09:48:52;;;;;;;1.40;1.20;;;;;;;26.55;43.53;94864.59;4970443;28;20058;-71
2021/09/01 09:51:37;;;;;;;1.65;1.05;;;;;;;26.39;42.69;94865.75;4922194;28;20034;-74
2021/09/01 09:54:14;;;;;;;1.30;1.00;;;;;;;26.57;43.62;94862.47;4953206;28;20038;-74
2021/09/01 09:56:41;;;;;;;1.63;0.90;;;;;;;26.43;42.13;94852.69;4971664;28;20420;-73
2021/09/01 09:59:07;;;;;;;3.05;0.88;;;;;;;26.42;41.42;94856.44;4954618;28;20492;-74
2021/09/01 10:01:32;;;;;;;2.58;0.98;;;;;;;26.12;42.83;94854.63;4936385;28;20058;-76
2021/09/01 10:03:58;;;;;;;1.02;0.93;;;;;;;26.22;43.33;94849.31;4971491;28;20033;-74
2021/09/01 10:06:23;;;;;;;2.20;1.20;;;;;;;26.14;42.10;94853.28;4917181;28;20087;-74
2021/09/01 10:08:50;;;;;;;1.48;1.20;;;;;;;25.89;41.71;94845.38;4970786;28;20027;-73
2021/09/01 10:11:16;;;;;;;2.85;1.00;;;;;;;26.05;42.27;94849.59;4968741;28;20030;-71
2021/09/01 10:13:43;;;;;;;1.25;1.15;;;;;;;25.72;43.55;94836.91;4953862;28;20038;-73
2021/09/01 10:16:14;;;;;;;0.80;0.80;;;;;;;25.54;43.53;94843.56;4936804;28;20026;-74
2021/09/01 10:18:39;;;;;;;0.95;0.80;;;;;;;25.81;44.06;94842.50;4936566;28;20097;-72
2021/09/01 10:21:06;;;;;;;0.95;0.90;;;;;;;25.78;43.12;94835.88;4952980;28;20070;-73
2021/09/01 10:23:43;;;;;;;1.20;1.10;;;;;;;25.94;43.38;94836.63;4935610;28;20053;-74
2021/09/01 10:26:22;;;;;;;2.67;1.05;;;;;;;25.92;43.21;94831.56;4953949;28;20023;-72
2021/09/01 10:28:48;;;;;;;3.58;1.10;;;;;;;24.82;42.72;94832.38;4951679;28;20500;-71
2021/09/01 10:31:16;;;;;;;1.00;1.00;;;;;;;25.13;43.84;94832.13;4947585;28;20042;-74
2021/09/01 10:33:47;;;;;;;1.23;1.13;;;;;;;25.29;45.36;94832.94;4969571;28;20122;-72
2021/09/01 10:36:24;;;;;;;0.80;0.80;;;;;;;25.27;44.13;94834.28;4969445;28;20117;-72
2021/09/01 10:38:55;;;;;;;3.38;1.13;;;;;;;25.94;44.03;94831.31;4970940;28;20404;-72
2021/09/01 10:41:28;;;;;;;3.47;1.08;;;;;;;26.04;44.31;94833.94;4968340;28;20791;-72
2021/09/01 10:43:54;;;;;;;3.83;1.08;;;;;;;26.35;43.40;94837.31;4950005;28;20030;-72
2021/09/01 10:46:20;;;;;;;2.15;1.30;;;;;;;26.35;40.92;94832.81;4967589;28;20030;-72
2021/09/01 10:48:56;;;;;;;1.85;1.10;;;;;;;25.96;42.08;94827.31;4969267;28;20112;-71
2021/09/01 10:51:28;;;;;;;2.28;0.90;;;;;;;25.78;41.18;94843.84;4937404;28;20022;-70
2021/09/01 10:53:54;;;;;;;1.30;0.80;;;;;;;25.77;41.27;94836.91;4967883;28;20054;-73
2021/09/01 10:56:19;;;;;;;2.13;0.80;;;;;;;25.64;39.94;94832.16;4936544;28;20464;-73
2021/09/01 10:58:45;;;;;;;1.02;0.80;;;;;;;25.41;41.18;94833.47;4935405;28;20047;-71
2021/09/01 11:01:10;;;;;;;8.90;1.30;;;;;;;25.23;41.47;94851.75;4936462;28;20061;-70
2021/09/01 11:03:37;;;;;;;1.08;0.90;;;;;;;25.80;41.71;94846.19;4967371;28;20480;-73
2021/09/01 11:06:22;;;;;;;2.85;1.17;;;;;;;25.29;43.24;94848.84;4935260;28;20034;-73
2021/09/01 11:09:09;;;;;;;1.40;1.10;;;;;;;25.73;44.25;94846.47;4951055;28;20081;-70
2021/09/01 11:11:39;;;;;;;1.60;1.10;;;;;;;25.38;42.84;94847.25;4949009;28;20097;-73
2021/09/01 11:14:05;;;;;;;1.08;0.90;;;;;;;25.20;44.78;94849.66;4933977;28;20419;-75
2021/09/01 11:16:31;;;;;;;1.05;0.85;;;;;;;25.03;44.25;94852.53;4948314;28;20030;-73
2021/09/01 11:19:10;;;;;;;0.85;0.85;;;;;;;25.87;43.49;94849.38;4966346;28;20026;-71
2021/09/01 11:21:41;;;;;;;0.77;0.73;;;;;;;25.55;44.29;94850.47;4934431;28;20392;-73
2021/09/01 11:24:06;;;;;;;4.43;0.93;;;;;;;24.95;42.82;94847.72;4949004;28;20045;-73
2021/09/01 11:26:32;;;;;;;4.35;0.93;;;;;;;25.05;44.41;94845.91;4966468;28;20026;-74
2021/09/01 11:28:58;;;;;;;1.30;0.98;;;;;;;24.86;43.85;94836.06;4933261;28;20027;-73
2021/09/01 11:31:23;;;;;;;2.40;0.80;;;;;;;25.18;43.78;94840.09;4950404;28;20138;-72
2021/09/01 11:33:55;;;;;;;4.22;0.80;;;;;;;25.56;43.71;94836.13;4948677;28;20034;-72
2021/09/01 11:36:23;;;;;;;1.90;0.90;;;;;;;25.58;42.47;94842.00;4966802;28;20030;-72
2021/09/01 11:38:48;;;;;;;4.43;0.98;;;;;;;26.08;44.18;94832.31;4934182;28;20078;-74
2021/09/01 11:41:14;;;;;;;2.35;1.38;;;;;;;24.96;42.99;94841.38;4933831;28;20054;-71
2021/09/01 11:43:39;;;;;;;2.10;0.95;;;;;;;24.73;43.11;94837.31;4950417;28;20065;-74
2021/09/01 11:46:05;;;;;;;1.75;0.93;;;;;;;25.39;42.49;94835.59;4947959;28;20031;-72
2021/09/01 11:48:40;;;;;;;1.25;1.10;;;;;;;25.18;44.90;94839.28;4933230;28;20027;-71
2021/09/01 11:51:06;;;;;;;2.00;1.17;;;;;;;25.20;43.95;94836.38;4949085;28;20069;-74
2021/09/01 11:53:41;;;;;;;1.70;0.93;;;;;;;25.20;43.99;94834.53;4934652;28;20023;-73
2021/09/01 11:56:08;;;;;;;3.50;0.90;;;;;;;25.05;42.67;94826.53;4966053;28;20031;-72
2021/09/01 11:58:33;;;;;;;0.98;0.70;;;;;;;25.17;42.16;94827.09;4949924;28;20161;-72
2021/09/01 12:00:59;;;;;;;0.80;0.63;;;;;;;25.23;41.50;94818.09;4928646;29;20115;-74
2021/09/01 12:03:25;;;;;;;2.53;0.98;;;;;;;25.09;43.45;94817.00;4911549;29;20051;-70
2021/09/01 12:06:06;;;;;;;2.50;0.80;;;;;;;25.15;43.47;94826.56;4927646;29;20127;-70
2021/09/01 12:08:48;;;;;;;0.98;0.80;;;;;;;25.02;44.41;94821.78;4897379;29;20130;-71
2021/09/01 12:11:14;;;;;;;0.95;0.80;;;;;;;25.00;42.76;94821.25;4913195;29;20031;-71
2021/09/01 12:13:43;;;;;;;1.10;1.00;;;;;;;25.05;42.52;94819.38;4928951;29;20028;-75
2021/09/01 12:16:08;;;;;;;1.67;1.50;;;;;;;24.33;44.32;94826.63;4924722;29;20114;-72
2021/09/01 12:18:54;;;;;;;3.60;2.15;;;;;;;24.33;42.92;94824.75;4912472;29;20107;-71
2021/09/01 12:21:20;;;;;;;1.17;1.08;;;;;;;24.51;44.16;94818.19;4926440;29;20032;-76
2021/09/01 12:23:46;;;;;;;1.42;1.33;;;;;;;24.20;44.26;94833.19;4896799;29;20040;-72
2021/09/01 12:26:13;;;;;;;2.35;1.25;;;;;;;24.08;44.58;94820.09;4928318;29;20039;-72
2021/09/01 12:28:47;;;;;;;2.08;1.30;;;;;;;24.13;44.35;94819.38;4927652;29;20047;-73
2021/09/01 12:31:20;;;;;;;2.20;1.10;;;;;;;23.79;44.26;94823.41;4928503;29;20059;-74
2021/09/01 12:33:45;;;;;;;1.70;1.25;;;;;;;23.92;43.91;94822.94;4926446;29;20036;-72
2021/09/01 12:36:11;;;;;;;3.35;1.05;;;;;;;23.84;42.59;94811.00;4944078;29;20039;-72
2021/09/01 12:38:36;;;;;;;2.03;1.50;;;;;;;24.43;43.34;94816.06;4958960;28;20028;-73
2021/09/01 12:41:18;;;;;;;1.30;1.20;;;;;;;24.23;44.09;94822.06;4927537;29;20028;-70
2021/09/01 12:43:44;;;;;;;0.95;0.95;;;;;;;24.08;43.19;94821.97;4943468;29;20028;-72
2021/09/01 12:46:09;;;;;;;1.15;1.05;;;;;;;24.46;44.29;94826.13;4926539;29;20024;-74
2021/09/01 12:48:35;;;;;;;1.30;0.98;;;;;;;24.07;43.82;94817.72;4913055;29;20398;-72
2021/09/01 12:51:01;;;;;;;2.25;1.20;;;;;;;24.25;43.37;94817.31;4926005;29;20374;-73
2021/09/01 12:53:27;;;;;;;1.30;1.20;;;;;;;24.20;44.21;94827.88;4927338;29;20023;-74
2021/09/01 12:55:59;;;;;;;1.10;1.10;;;;;;;24.28;44.54;94814.13;4909928;29;20414;-71
2021/09/01 12:58:25;;;;;;;1.42;0.95;;;;;;;24.05;43.74;94825.13;4927425;29;20031;-74
2021/09/01 13:00:51;;;;;;;1.02;1.02;;;;;;;24.02;42.79;94807.09;4925832;29;20425;-72
2021/09/01 13:03:17;;;;;;;0.93;0.93;;;;;;;24.15;43.59;94819.91;4926678;29;20030;-74
2021/09/01 13:05:45;;;;;;;2.22;1.05;;;;;;;23.57;44.95;94819.03;4926888;29;20023;-73
2021/09/01 13:08:10;;;;;;;1.50;1.10;;;;;;;22.94;46.62;94811.09;4926665;29;20110;-71
2021/09/01 13:10:36;;;;;;;0.98;0.98;;;;;;;22.82;46.77;94818.38;4912748;29;20094;-72
2021/09/01 13:13:01;;;;;;;1.08;0.90;;;;;;;22.91;46.08;94814.22;4929401;29;20028;-70
2021/09/01 13:15:27;;;;;;;0.93;0.80;;;;;;;23.72;44.13;94812.25;4931009;29;20438;-74
2021/09/01 13:17:53;;;;;;;0.80;0.80;;;;;;;23.79;43.71;94802.25;4929907;29;20024;-74
2021/09/01 13:20:23;;;;;;;7.15;1.20;;;;;;;23.90;43.92;94793.28;4930443;29;20484;-72
2021/09/01 13:22:50;;;;;;;2.03;0.77;;;;;;;23.91;43.33;94808.13;4915341;29;20039;-70
2021/09/01 13:25:15;;;;;;;0.93;0.75;;;;;;;23.90;42.60;94803.88;4913147;29;20030;-72
2021/09/01 13:27:41;;;;;;;1.65;0.70;;;;;;;23.76;43.84;94795.59;4914692;29;20047;-73
2021/09/01 13:30:08;;;;;;;0.88;0.65;;;;;;;23.93;43.99;94801.50;4898999;29;21038;-73
2021/09/01 13:32:33;;;;;;;0.60;0.60;;;;;;;24.03;44.12;94796.28;4927684;29;20145;-74
2021/09/01 13:34:59;;;;;;;1.52;1.42;;;;;;;24.09;44.30;94795.22;4928224;29;20090;-73
2021/09/01 13:37:24;;;;;;;1.70;0.70;;;;;;;23.97;42.36;94796.50;4928889;29;20023;-73
2021/09/01 13:39:50;;;;;;;2.35;0.73;;;;;;;23.83;42.87;94800.66;4913567;29;20063;-74
2021/09/01 13:42:15;;;;;;;2.03;0.80;;;;;;;23.72;42.89;94797.16;4930106;29;20537;-73
2021/09/01 13:44:41;;;;;;;1.15;0.73;;;;;;;23.77;41.99;94806.97;4913177;29;20035;-73
2021/09/01 13:47:06;;;;;;;2.15;0.80;;;;;;;23.77;42.80;94806.97;4912832;29;20409;-74
2021/09/01 13:49:32;;;;;;;1.30;0.90;;;;;;;23.85;42.31;94796.72;4930539;29;20062;-71
2021/09/01 13:51:57;;;;;;;1.80;0.98;;;;;;;23.70;43.92;94793.16;4927265;29;20040;-73
2021/09/01 13:54:23;;;;;;;2.55;0.93;;;;;;;23.70;43.50;94791.31;4924577;29;20564;-74
2021/09/01 13:56:49;;;;;;;1.25;0.80;;;;;;;23.68;43.82;94798.72;4917987;29;20032;-71
2021/09/01 13:59:16;;;;;;;5.05;1.10;;;;;;;23.51;44.40;94798.09;4893817;29;20032;-72
2021/09/01 14:01:41;;;;;;;1.13;0.80;;;;;;;23.51;44.79;94798.88;4900234;29;20599;-71
2021/09/01 14:04:07;;;;;;;7.88;1.25;;;;;;;23.46;45.14;94800.69;4911992;29;20036;-72
2021/09/01 14:06:33;;;;;;;3.33;1.00;;;;;;;23.49;45.35;94794.91;4911392;29;20035;-72
2021/09/01 14:08:59;;;;;;;1.20;1.02;;;;;;;23.28;45.44;94799.22;4908839;29;20047;-71
2021/09/01 14:11:25;;;;;;;1.75;1.25;;;;;;;23.43;45.42;94804.66;4921087;29;20059;-74
2021/09/01 14:13:50;;;;;;;1.33;1.23;;;;;;;23.20;46.16;94812.09;4901471;29;20485;-73
2021/09/01 14:16:16;;;;;;;1.95;1.10;;;;;;;22.97;47.18;94805.31;4911254;29;20406;-72
2021/09/01 14:18:43;;;;;;;1.73;1.30;;;;;;;22.87;46.74;94806.00;4912062;29;20180;-72
2021/09/01 14:21:09;;;;;;;1.38;1.27;;;;;;;23.02;46.83;94810.66;4912883;29;20465;-72
2021/09/01 14:23:34;;;;;;;4.75;1.50;;;;;;;22.79;47.84;94805.66;4931949;29;20035;-72
2021/09/01 14:25:59;;;;;;;1.58;1.10;;;;;;;22.97;47.38;94811.38;4928057;29;20082;-74
2021/09/01 14:28:25;;;;;;;1.45;1.20;;;;;;;23.02;46.67;94810.66;4929146;29;20386;-71
2021/09/01 14:30:51;;;;;;;1.40;1.30;;;;;;;23.01;47.04;94815.13;4928105;29;20042;-74
2021/09/01 14:33:16;;;;;;;1.73;1.42;;;;;;;22.78;47.05;94822.56;4928725;29;20036;-71
2021/09/01 14:35:42;;;;;;;1.58;1.30;;;;;;;22.94;47.42;94824.28;4928503;29;20378;-72
2021/09/01 14:38:07;;;;;;;4.97;1.70;;;;;;;22.73;47.58;94827.81;4927929;29;20023;-68
2021/09/01 14:40:33;;;;;;;2.45;1.52;;;;;;;22.45;48.14;94820.84;4924995;29;20032;-70
2021/09/01 14:42:58;;;;;;;6.47;1.58;;;;;;;22.44;47.85;94835.13;4926699;29;20020;-71
2021/09/01 14:45:24;;;;;;;1.60;1.50;;;;;;;22.12;49.64;94818.38;4927789;29;20043;-72
2021/09/01 14:47:50;;;;;;;3.08;1.85;;;;;;;22.27;49.54;94834.38;4912519;29;20492;-72
2021/09/01 14:50:15;;;;;;;4.82;1.73;;;;;;;22.29;50.17;94827.81;4929100;29;20020;-72
2021/09/01 14:52:41;;;;;;;2.00;1.60;;;;;;;22.16;50.20;94832.66;4896585;29;20032;-74
2021/09/01 14:55:06;;;;;;;2.13;1.50;;;;;;;22.13;50.07;94830.50;4929345;29;20561;-71
2021/09/01 14:57:32;;;;;;;2.75;1.50;;;;;;;22.11;49.03;94833.41;4911220;29;20038;-70
2021/09/01 14:59:57;;;;;;;1.80;1.70;;;;;;;22.18;49.27;94841.94;4928192;29;20091;-70
2021/09/01 15:02:23;;;;;;;4.20;1.95;;;;;;;21.97;48.76;94832.16;4963375;28;20054;-71
2021/09/01 15:04:48;;;;;;;1.83;1.73;;;;;;;21.85;49.16;94824.31;4967863;28;20038;-73
2021/09/01 15:07:14;;;;;;;1.42;1.33;;;;;;;22.03;49.13;94831.16;4951296;28;20045;-74
2021/09/01 15:09:39;;;;;;;1.55;1.45;;;;;;;21.99;49.41;94828.22;4967454;28;20038;-72
2021/09/01 15:12:05;;;;;;;2.42;1.33;;;;;;;21.60;50.08;94826.59;4968717;28;20031;-74
2021/09/01 15:14:33;;;;;;;2.05;1.10;;;;;;;21.78;49.51;94828.16;4934108;28;20030;-73
2021/09/01 15:17:00;;;;;;;3.83;1.35;;;;;;;21.35;49.74;94831.50;4968345;28;20567;-73
2021/09/01 15:19:26;;;;;;;2.08;1.50;;;;;;;21.40;49.40;94834.22;4950678;28;20058;-73
2021/09/01 15:21:51;;;;;;;2.00;1.50;;;;;;;21.07;50.70;94836.78;4948958;28;20105;-72
2021/09/01 15:24:16;;;;;;;2.65;1.20;;;;;;;21.04;50.60;94838.06;4950842;28;20042;-72
2021/09/01 15:26:42;;;;;;;3.78;1.95;;;;;;;21.04;51.20;94827.53;4967514;28;20468;-71
2021/09/01 15:29:08;;;;;;;2.05;1.50;;;;;;;21.10;51.60;94831.88;4951597;28;20432;-70
2021/09/01 15:31:33;;;;;;;1.40;1.30;;;;;;;21.05;52.18;94837.03;4929601;28;20038;-73
2021/09/01 15:33:59;;;;;;;1.85;1.15;;;;;;;21.11;51.48;94838.75;4932218;29;20039;-71
2021/09/01 15:36:24;;;;;;;1.42;1.33;;;;;;;20.86;52.63;94831.19;4931268;28;20125;-72
2021/09/01 15:38:49;;;;;;;2.00;0.90;;;;;;;20.78;53.23;94831.56;4938546;28;20035;-71
2021/09/01 15:41:15;;;;;;;1.52;1.13;;;;;;;20.78;53.59;94839.47;4959336;28;20038;-72
2021/09/01 15:43:42;;;;;;;2.08;1.30;;;;;;;20.71;53.50;94840.66;4959292;28;20026;-75
2021/09/01 15:46:13;;;;;;;1.73;1.27;;;;;;;20.61;54.06;94837.84;4950763;28;20037;-74
2021/09/01 15:48:42;;;;;;;2.95;1.27;;;;;;;20.55;54.02;94836.94;4933678;28;20551;-73
2021/09/01 15:51:07;;;;;;;2.08;1.10;;;;;;;20.60;54.72;94844.94;4967954;28;20113;-72
2021/09/01 15:53:33;;;;;;;1.85;1.30;;;;;;;20.47;54.61;94832.84;4949375;28;20026;-71
2021/09/01 15:55:58;;;;;;;1.67;1.23;;;;;;;20.33;56.02;94844.69;4949671;28;20480;-75
2021/09/01 15:58:23;;;;;;;3.42;2.33;;;;;;;20.12;56.60;94836.59;4948244;28;20035;-72
2021/09/01 16:00:49;;;;;;;1.40;1.30;;;;;;;20.17;55.63;94840.09;4930136;29;20058;-72
2021/09/01 16:03:16;;;;;;;1.35;1.25;;;;;;;20.02;55.89;94831.13;4911265;29;20051;-73
2021/09/01 16:05:41;;;;;;;2.33;1.70;;;;;;;19.92;57.43;94839.59;4910275;29;20502;-71
2021/09/01 16:08:07;;;;;;;2.42;1.80;;;;;;;19.95;57.04;94839.13;4926942;29;20071;-74
2021/09/01 16:10:37;;;;;;;2.05;1.65;;;;;;;19.77;57.70;94831.38;4925456;29;20405;-72
2021/09/01 16:13:04;;;;;;;1.67;1.58;;;;;;;19.72;57.58;94841.78;4926623;29;20028;-70
2021/09/01 16:15:30;;;;;;;6.80;1.80;;;;;;;19.63;58.09;94837.91;4909979;29;20506;-74
2021/09/01 16:18:15;;;;;;;1.85;1.75;;;;;;;19.52;59.24;94836.09;4909469;29;20048;-71
2021/09/01 16:20:41;;;;;;;2.75;1.70;;;;;;;19.46;58.95;94832.53;4926845;29;20035;-71
2021/09/01 16:23:09;;;;;;;1.60;1.45;;;;;;;19.39;59.56;94832.59;4926276;29;20558;-74
2021/09/01 16:25:34;;;;;;;1.65;1.55;;;;;;;19.35;60.12;94831.47;4911281;29;20099;-73
2021/09/01 16:28:02;;;;;;;2.75;1.58;;;;;;;19.16;60.28;94837.06;4909005;29;20580;-71
2021/09/01 16:30:28;;;;;;;1.80;1.70;;;;;;;19.13;60.93;94837.50;4907629;29;20502;-73
2021/09/01 16:32:55;;;;;;;1.70;1.60;;;;;;;19.10;60.06;94838.75;4925821;29;20032;-74
2021/09/01 16:35:20;;;;;;;1.83;1.70;;;;;;;18.92;61.31;94830.94;4909618;29;20035;-74